Warners, New York
Current Conditions -  °F | °C
As of 1:11 PM on Friday 28 Nov 2014 (Local Time) from KSYR Reporting Station
Light Snow Light Snow  
Wind Chill: 12°   Ceiling: 2800
Heat Index: 26°   Visibility: 1.7mi
Dew Point: 19°   Wind: 20mph
Humidity: 75%   Direction: 260°W
Pressure: 30.2"   Gusts: 25mph
Location:  43.09°N, 76.33°W
Report Text: KSYR 281811Z 26017G22KT 1 3/4SM -SN SCT023 BKN028 OVC034 M03/M07 A3020 RMK AO2 P0000 T10331072 $
Loading
Personal Weather Stations






























Interactive Weather Map New forecast layout! Learn more

10-Day Weather Forecast

Advertisements
Track Severe Weather on mobile